createdAt,value
2023-03-02T00:00:13.539Z,5.10
2023-03-02T00:02:58.843Z,5.10
2023-03-02T00:05:47.169Z,5.10
2023-03-02T00:08:33.089Z,5.10
2023-03-02T00:11:18.739Z,5.10
2023-03-02T00:14:04.368Z,5.00
2023-03-02T00:16:50.032Z,5.00
2023-03-02T00:19:36.455Z,5.00
2023-03-02T00:22:22.176Z,5.00
2023-03-02T00:25:07.933Z,5.00
2023-03-02T00:27:53.611Z,5.00
2023-03-02T00:30:39.289Z,5.00
2023-03-02T00:33:24.705Z,5.10
2023-03-02T00:36:17.067Z,5.10
2023-03-02T00:39:03.646Z,5.10
2023-03-02T00:41:49.373Z,5.10
2023-03-02T00:44:34.951Z,5.10
2023-03-02T00:47:20.419Z,5.10
2023-03-02T00:50:06.509Z,5.10
2023-03-02T00:52:52.386Z,5.10
2023-03-02T00:55:38.023Z,5.20
2023-03-02T00:58:25.703Z,5.20
2023-03-02T01:01:13.201Z,5.20
2023-03-02T01:04:03.614Z,5.20
2023-03-02T01:06:49.435Z,5.20
2023-03-02T01:09:35.837Z,5.20
2023-03-02T01:12:21.519Z,5.20
2023-03-02T01:15:08.862Z,5.20
2023-03-02T01:17:54.642Z,5.20
2023-03-02T01:20:40.267Z,5.20
2023-03-02T01:23:25.832Z,5.20
2023-03-02T01:26:11.458Z,5.20
2023-03-02T01:28:57.062Z,5.20
2023-03-02T01:31:42.709Z,5.20
2023-03-02T01:34:28.776Z,5.20
2023-03-02T01:37:14.361Z,5.20
2023-03-02T01:39:59.808Z,5.20
2023-03-02T01:42:47.219Z,5.20
2023-03-02T01:45:59.659Z,5.20
2023-03-02T01:49:01.739Z,5.20
2023-03-02T01:52:03.085Z,5.30
2023-03-02T01:54:49.928Z,5.30
2023-03-02T01:57:43.533Z,5.20
2023-03-02T02:00:31.733Z,5.20
2023-03-02T02:03:21.025Z,5.30
2023-03-02T02:06:11.610Z,5.30
2023-03-02T02:08:58.277Z,5.30
2023-03-02T02:11:44.243Z,5.30
2023-03-02T02:14:29.541Z,5.20
2023-03-02T02:17:16.403Z,5.20
2023-03-02T02:20:12.888Z,5.20
2023-03-02T02:23:04.570Z,5.30
2023-03-02T02:25:53.553Z,5.30
2023-03-02T02:28:51.741Z,5.30
2023-03-02T02:31:37.627Z,5.30
2023-03-02T02:34:32.275Z,5.20
2023-03-02T02:37:26.191Z,5.30
2023-03-02T02:40:35.126Z,5.20
2023-03-02T02:43:22.680Z,5.30
2023-03-02T02:46:10.530Z,5.30
2023-03-02T02:48:56.459Z,5.30
2023-03-02T02:51:42.985Z,5.30
2023-03-02T02:54:30.084Z,5.30
2023-03-02T02:57:17.909Z,5.20
2023-03-02T03:00:06.594Z,5.20
2023-03-02T03:02:54.156Z,5.20
2023-03-02T03:05:39.495Z,5.20
2023-03-02T03:08:43.688Z,5.20
2023-03-02T03:11:37.739Z,5.20
2023-03-02T03:14:33.465Z,5.20
2023-03-02T03:17:19.268Z,5.20
2023-03-02T03:20:16.106Z,5.20
2023-03-02T03:23:03.020Z,5.30
2023-03-02T03:25:50.084Z,5.30
2023-03-02T03:28:36.030Z,5.30
2023-03-02T03:31:24.435Z,5.30
2023-03-02T03:34:12.153Z,5.40
2023-03-02T03:37:03.400Z,5.40
2023-03-02T03:39:52.703Z,5.40
2023-03-02T03:42:39.714Z,5.40
2023-03-02T03:45:25.553Z,5.40
2023-03-02T03:48:11.102Z,5.40
2023-03-02T03:50:58.279Z,5.40
2023-03-02T03:53:44.190Z,5.40
2023-03-02T03:56:32.065Z,5.40
2023-03-02T03:59:20.027Z,5.40
2023-03-02T04:02:10.158Z,5.40
2023-03-02T04:05:06.501Z,5.40
2023-03-02T04:07:52.582Z,5.40
2023-03-02T04:10:38.695Z,5.40
2023-03-02T04:13:24.640Z,5.40
2023-03-02T04:16:10.543Z,5.40
2023-03-02T04:18:57.120Z,5.40
2023-03-02T04:21:45.061Z,5.40
2023-03-02T04:24:30.911Z,5.40
2023-03-02T04:27:20.000Z,5.40
2023-03-02T04:30:06.067Z,5.40
2023-03-02T04:32:52.236Z,5.40
2023-03-02T04:35:38.734Z,5.40
2023-03-02T04:38:24.672Z,5.50
2023-03-02T04:41:10.305Z,5.50
2023-03-02T04:43:56.721Z,5.50
2023-03-02T04:46:44.697Z,5.50
2023-03-02T04:49:30.685Z,5.50
2023-03-02T04:52:16.169Z,5.60
2023-03-02T04:55:02.215Z,5.60
2023-03-02T04:57:47.510Z,5.60
2023-03-02T05:00:35.185Z,5.60
2023-03-02T05:03:20.671Z,5.60
2023-03-02T05:06:06.571Z,5.60
2023-03-02T05:08:53.399Z,5.60
2023-03-02T05:11:38.875Z,5.60
2023-03-02T05:14:24.864Z,5.70
2023-03-02T05:17:10.672Z,5.70
2023-03-02T05:19:55.904Z,5.70
2023-03-02T05:22:41.381Z,5.70
2023-03-02T05:25:28.031Z,5.70
2023-03-02T05:28:13.767Z,5.80
2023-03-02T05:30:59.755Z,5.80
2023-03-02T05:33:45.484Z,5.80
2023-03-02T05:36:31.096Z,5.80
2023-03-02T05:39:16.467Z,5.80
2023-03-02T05:42:01.771Z,5.80
2023-03-02T05:44:47.072Z,5.80
2023-03-02T05:47:32.941Z,5.80
2023-03-02T05:50:19.089Z,5.90
2023-03-02T05:53:04.625Z,5.90
2023-03-02T05:55:50.038Z,5.90
2023-03-02T05:58:35.680Z,5.90
2023-03-02T06:01:21.394Z,5.90
2023-03-02T06:04:07.070Z,5.90
2023-03-02T06:06:54.596Z,5.90
2023-03-02T06:09:40.230Z,6.00
2023-03-02T06:12:25.527Z,6.00
2023-03-02T06:15:11.371Z,6.00
2023-03-02T06:17:57.593Z,5.90
2023-03-02T06:20:43.344Z,6.00
2023-03-02T06:23:29.124Z,6.00
2023-03-02T06:26:14.252Z,6.10
2023-03-02T06:29:00.167Z,6.10
2023-03-02T06:31:45.578Z,6.10
2023-03-02T06:34:31.170Z,6.10
2023-03-02T06:38:02.027Z,6.10
2023-03-02T06:40:47.384Z,6.20
2023-03-02T06:43:32.800Z,6.20
2023-03-02T06:46:18.291Z,6.20
2023-03-02T06:49:04.168Z,6.20
2023-03-02T06:51:49.677Z,6.30
2023-03-02T06:54:35.123Z,6.30
2023-03-02T06:57:20.699Z,6.30
2023-03-02T07:00:10.251Z,6.30
2023-03-02T07:02:56.542Z,6.40
2023-03-02T07:05:42.751Z,6.50
2023-03-02T07:08:29.221Z,6.50
2023-03-02T07:11:14.810Z,6.50
2023-03-02T07:14:00.351Z,6.50
2023-03-02T07:16:45.884Z,6.60
2023-03-02T07:19:31.849Z,6.60
2023-03-02T07:22:17.514Z,6.80
2023-03-02T07:25:03.043Z,6.80
2023-03-02T07:27:48.625Z,6.90
2023-03-02T07:30:34.040Z,6.90
2023-03-02T07:33:21.500Z,7.00
2023-03-02T07:36:07.862Z,7.10
2023-03-02T07:38:53.349Z,7.20
2023-03-02T07:41:38.964Z,7.40
2023-03-02T07:44:25.923Z,7.60
2023-03-02T07:47:11.646Z,7.70
2023-03-02T07:49:57.718Z,7.70
2023-03-02T07:52:43.043Z,7.70
2023-03-02T07:55:28.751Z,7.80
2023-03-02T07:58:14.236Z,7.90
2023-03-02T08:00:59.643Z,7.90
2023-03-02T08:03:45.144Z,7.90
2023-03-02T08:06:30.724Z,8.00
2023-03-02T08:09:17.077Z,8.00
2023-03-02T08:12:02.617Z,8.00
2023-03-02T08:14:48.507Z,7.90
2023-03-02T08:17:34.278Z,7.90
2023-03-02T08:20:19.534Z,7.90
2023-03-02T08:23:05.063Z,7.90
2023-03-02T08:25:50.439Z,7.90
2023-03-02T08:28:36.143Z,7.90
2023-03-02T08:31:22.584Z,7.80
2023-03-02T08:34:08.613Z,7.80
2023-03-02T08:36:54.173Z,7.90
2023-03-02T08:39:39.635Z,7.90
2023-03-02T08:42:25.258Z,7.90
2023-03-02T08:45:10.668Z,7.90
2023-03-02T08:47:56.302Z,7.90
2023-03-02T08:50:41.917Z,8.00
2023-03-02T08:53:29.328Z,8.00
2023-03-02T08:56:19.545Z,8.00
2023-03-02T08:59:06.529Z,8.10
2023-03-02T09:01:52.005Z,8.10
2023-03-02T09:04:37.400Z,8.10
2023-03-02T09:07:23.152Z,8.20
2023-03-02T09:10:09.957Z,8.30
2023-03-02T09:12:55.761Z,8.40
2023-03-02T09:15:41.579Z,8.40
2023-03-02T09:18:27.177Z,8.50
2023-03-02T09:21:12.614Z,8.50
2023-03-02T09:23:58.461Z,8.50
2023-03-02T09:26:44.320Z,8.60
2023-03-02T09:29:30.166Z,8.60
2023-03-02T09:32:16.013Z,8.70
2023-03-02T09:35:01.611Z,8.60
2023-03-02T09:37:47.050Z,8.70
2023-03-02T09:40:33.245Z,8.70
2023-03-02T09:43:31.028Z,8.80
2023-03-02T09:46:34.681Z,8.80
2023-03-02T09:49:23.055Z,8.90
2023-03-02T09:52:14.408Z,8.90
2023-03-02T09:55:01.612Z,8.90
2023-03-02T09:57:47.618Z,9.00
2023-03-02T10:00:36.334Z,9.00
2023-03-02T10:03:23.283Z,9.10
2023-03-02T10:06:09.405Z,9.10
2023-03-02T10:08:55.182Z,9.20
2023-03-02T10:11:43.863Z,9.30
2023-03-02T10:14:39.635Z,9.30
2023-03-02T10:17:25.388Z,9.40
2023-03-02T10:20:34.548Z,9.50
2023-03-02T10:23:31.397Z,9.50
2023-03-02T10:26:23.174Z,9.60
2023-03-02T10:29:27.405Z,9.70
2023-03-02T10:32:16.577Z,9.80
2023-03-02T10:35:09.281Z,9.90
2023-03-02T10:38:27.389Z,10.00
2023-03-02T10:41:18.110Z,10.10
2023-03-02T10:44:08.554Z,10.20
2023-03-02T10:46:54.229Z,10.30
2023-03-02T10:49:43.468Z,10.40
2023-03-02T10:52:28.923Z,10.40
2023-03-02T10:55:15.669Z,10.50
2023-03-02T10:58:01.047Z,10.80
2023-03-02T11:01:04.249Z,10.90
2023-03-02T11:03:57.139Z,11.20
2023-03-02T11:06:42.899Z,11.10
2023-03-02T11:09:28.552Z,11.20
2023-03-02T11:12:15.445Z,11.30
2023-03-02T11:15:02.113Z,11.50
2023-03-02T11:17:53.846Z,11.70
2023-03-02T11:20:41.482Z,11.70
2023-03-02T11:23:32.794Z,11.80
2023-03-02T11:26:18.054Z,11.80
2023-03-02T11:29:03.324Z,11.70
2023-03-02T11:32:15.370Z,11.40
2023-03-02T11:35:04.716Z,11.50
2023-03-02T11:37:53.163Z,11.40
2023-03-02T11:40:47.066Z,11.40
2023-03-02T11:43:33.855Z,11.30
2023-03-02T11:46:24.737Z,11.30
2023-03-02T11:49:16.171Z,11.40
2023-03-02T11:52:02.211Z,11.30
2023-03-02T11:54:55.050Z,11.30
2023-03-02T11:57:48.542Z,11.20
2023-03-02T12:00:41.422Z,11.10
2023-03-02T12:03:32.982Z,11.00
2023-03-02T12:06:18.540Z,10.90
2023-03-02T12:09:08.863Z,10.90
2023-03-02T12:11:59.904Z,10.90
2023-03-02T12:14:45.553Z,10.90
2023-03-02T12:17:32.838Z,11.10
2023-03-02T12:20:21.624Z,11.00
2023-03-02T12:23:08.335Z,11.00
2023-03-02T12:26:24.440Z,10.90
2023-03-02T12:29:10.010Z,10.80
2023-03-02T12:31:56.672Z,10.70
2023-03-02T12:34:44.613Z,10.70
2023-03-02T12:37:41.868Z,10.60
2023-03-02T12:40:27.051Z,10.60
2023-03-02T12:43:32.675Z,10.50
2023-03-02T12:46:35.429Z,10.40
2023-03-02T12:49:32.401Z,10.40
2023-03-02T12:52:24.136Z,10.30
2023-03-02T12:55:09.910Z,10.30
2023-03-02T12:57:56.971Z,10.20
2023-03-02T13:00:49.016Z,10.20
2023-03-02T13:03:34.448Z,10.20
2023-03-02T13:06:20.670Z,10.20
2023-03-02T13:09:05.951Z,10.30
2023-03-02T13:11:54.804Z,10.20
2023-03-02T13:14:41.276Z,10.20
2023-03-02T13:17:30.655Z,10.20
2023-03-02T13:20:16.618Z,10.20
2023-03-02T13:23:03.352Z,10.10
2023-03-02T13:25:53.852Z,10.10
2023-03-02T13:28:39.720Z,10.00
2023-03-02T13:31:27.678Z,10.00
2023-03-02T13:34:23.409Z,10.00
2023-03-02T13:37:21.399Z,9.90
2023-03-02T13:40:21.868Z,9.90
2023-03-02T13:43:22.716Z,9.90
2023-03-02T13:46:11.131Z,9.90
2023-03-02T13:49:10.831Z,9.90
2023-03-02T13:52:00.772Z,9.80
2023-03-02T13:54:47.122Z,9.80
2023-03-02T13:57:32.897Z,9.80
2023-03-02T14:00:20.406Z,9.80
2023-03-02T14:03:21.996Z,9.90
2023-03-02T14:06:08.142Z,9.90
2023-03-02T14:08:53.560Z,9.90
2023-03-02T14:11:40.402Z,9.90
2023-03-02T14:14:26.932Z,9.90
2023-03-02T14:17:16.660Z,9.90
2023-03-02T14:20:01.975Z,9.80
2023-03-02T14:22:48.101Z,9.80
2023-03-02T14:25:33.783Z,9.80
2023-03-02T14:28:22.841Z,9.80
2023-03-02T14:31:08.552Z,9.90
2023-03-02T14:33:54.447Z,10.00
2023-03-02T14:36:40.880Z,10.00
2023-03-02T14:39:35.446Z,10.10
2023-03-02T14:42:21.123Z,10.10
2023-03-02T14:45:09.821Z,10.20
2023-03-02T14:47:55.236Z,10.30
2023-03-02T14:50:41.987Z,10.40
2023-03-02T14:53:29.598Z,11.20
2023-03-02T14:56:15.892Z,10.60
2023-03-02T14:59:01.493Z,10.70
2023-03-02T15:01:47.339Z,10.60
2023-03-02T15:04:34.786Z,10.50
2023-03-02T15:07:21.162Z,10.50
2023-03-02T15:10:07.644Z,10.40
2023-03-02T15:12:53.385Z,10.30
2023-03-02T15:15:39.532Z,10.30
2023-03-02T15:18:25.336Z,10.30
2023-03-02T15:21:18.521Z,10.30
2023-03-02T15:24:04.093Z,10.30
2023-03-02T15:26:50.035Z,10.30
2023-03-02T15:29:35.874Z,10.30
2023-03-02T15:32:21.597Z,10.30
2023-03-02T15:35:07.728Z,10.30
2023-03-02T15:37:53.401Z,10.30
2023-03-02T15:40:39.052Z,10.30
2023-03-02T15:43:24.342Z,10.30
2023-03-02T15:46:10.017Z,10.30
2023-03-02T15:48:56.066Z,10.30
2023-03-02T15:51:41.486Z,10.30
2023-03-02T15:54:27.191Z,10.30
2023-03-02T15:57:13.080Z,10.30
2023-03-02T15:59:58.193Z,10.30
2023-03-02T16:02:43.933Z,10.20
2023-03-02T16:05:29.919Z,10.20
2023-03-02T16:08:15.512Z,10.20
2023-03-02T16:11:02.402Z,10.20
2023-03-02T16:13:49.487Z,10.20
2023-03-02T16:16:35.551Z,10.10
2023-03-02T16:19:20.969Z,10.10
2023-03-02T16:22:06.494Z,10.10
2023-03-02T16:24:51.843Z,10.10
2023-03-02T16:27:37.215Z,10.10
2023-03-02T16:30:23.614Z,10.10
2023-03-02T16:33:10.724Z,10.10
2023-03-02T16:35:56.375Z,10.00
2023-03-02T16:38:42.148Z,10.00
2023-03-02T16:41:31.260Z,10.00
2023-03-02T16:44:17.116Z,10.00
2023-03-02T16:47:08.279Z,10.00
2023-03-02T16:49:53.876Z,9.90
2023-03-02T16:52:39.786Z,9.90
2023-03-02T16:55:25.766Z,9.90
2023-03-02T16:58:11.286Z,9.90
2023-03-02T17:00:57.056Z,9.80
2023-03-02T17:03:43.042Z,9.80
2023-03-02T17:06:29.004Z,9.80
2023-03-02T17:09:14.555Z,9.80
2023-03-02T17:12:00.464Z,9.80
2023-03-02T17:14:46.422Z,9.80
2023-03-02T17:17:31.790Z,9.80
2023-03-02T17:20:17.908Z,9.70
2023-03-02T17:23:04.092Z,9.60
2023-03-02T17:25:49.488Z,9.60
2023-03-02T17:28:35.132Z,9.60
2023-03-02T17:31:20.850Z,9.60
2023-03-02T17:34:06.750Z,9.60
2023-03-02T17:36:52.460Z,9.50
2023-03-02T17:39:38.905Z,9.60
2023-03-02T17:42:24.916Z,9.50
2023-03-02T17:45:24.451Z,9.50
2023-03-02T17:48:10.232Z,9.50
2023-03-02T17:50:55.484Z,9.50
2023-03-02T17:53:42.122Z,9.50
2023-03-02T17:56:28.343Z,9.50
2023-03-02T17:59:14.193Z,9.40
2023-03-02T18:02:01.478Z,9.40
2023-03-02T18:04:47.065Z,9.40
2023-03-02T18:07:32.822Z,9.40
2023-03-02T18:10:18.485Z,9.40
2023-03-02T18:13:03.767Z,9.40
2023-03-02T18:15:50.712Z,9.40
2023-03-02T18:18:36.744Z,9.40
2023-03-02T18:21:42.020Z,9.40
2023-03-02T18:24:27.478Z,9.40
2023-03-02T18:27:13.317Z,9.40
2023-03-02T18:29:58.855Z,9.40
2023-03-02T18:32:44.562Z,9.40
2023-03-02T18:35:30.572Z,9.40
2023-03-02T18:38:15.951Z,9.40
2023-03-02T18:41:03.540Z,9.40
2023-03-02T18:43:49.271Z,9.40
2023-03-02T18:46:34.949Z,9.40
2023-03-02T18:49:20.773Z,9.40
2023-03-02T18:52:06.857Z,9.40
2023-03-02T18:54:57.395Z,9.40
2023-03-02T18:57:44.441Z,9.30
2023-03-02T19:00:30.321Z,9.30
2023-03-02T19:03:16.448Z,9.30
2023-03-02T19:06:02.078Z,9.30
2023-03-02T19:08:48.420Z,9.30
2023-03-02T19:11:34.052Z,9.30
2023-03-02T19:14:19.867Z,9.30
2023-03-02T19:17:05.854Z,9.30
2023-03-02T19:19:51.478Z,9.30
2023-03-02T19:22:37.091Z,9.20
2023-03-02T19:25:22.933Z,9.20
2023-03-02T19:28:08.759Z,9.20
2023-03-02T19:30:54.642Z,9.20
2023-03-02T19:33:40.949Z,9.20
2023-03-02T19:36:26.641Z,9.20
2023-03-02T19:39:12.027Z,9.20
2023-03-02T19:41:57.486Z,9.20
2023-03-02T19:44:43.311Z,9.20
2023-03-02T19:47:29.752Z,9.10
2023-03-02T19:50:16.570Z,9.10
2023-03-02T19:53:02.306Z,9.10
2023-03-02T19:55:48.176Z,9.10
2023-03-02T19:58:34.536Z,9.10
2023-03-02T20:01:25.016Z,9.00
2023-03-02T20:04:10.712Z,9.00
2023-03-02T20:06:56.437Z,9.00
2023-03-02T20:09:42.524Z,9.00
2023-03-02T20:12:27.895Z,9.00
2023-03-02T20:15:14.285Z,8.90
2023-03-02T20:18:02.433Z,8.90
2023-03-02T20:20:48.576Z,8.90
2023-03-02T20:23:34.346Z,8.90
2023-03-02T20:26:20.240Z,8.90
2023-03-02T20:29:05.654Z,8.80
2023-03-02T20:31:51.045Z,8.80
2023-03-02T20:34:40.085Z,8.80
2023-03-02T20:37:26.387Z,8.80
2023-03-02T20:40:13.522Z,8.70
2023-03-02T20:42:59.814Z,8.70
2023-03-02T20:45:49.259Z,8.70
2023-03-02T20:48:34.831Z,8.70
2023-03-02T20:51:20.916Z,8.80
2023-03-02T20:54:06.553Z,8.70
2023-03-02T20:56:52.726Z,8.70
2023-03-02T20:59:38.229Z,8.70
2023-03-02T21:02:23.801Z,8.70
2023-03-02T21:05:09.805Z,8.60
2023-03-02T21:07:55.513Z,8.70
2023-03-02T21:10:42.192Z,8.60
2023-03-02T21:13:28.091Z,8.70
2023-03-02T21:16:18.587Z,8.60
2023-03-02T21:19:04.590Z,8.60
2023-03-02T21:21:49.881Z,8.60
2023-03-02T21:24:35.244Z,8.60
2023-03-02T21:27:20.472Z,8.60
2023-03-02T21:30:07.642Z,8.60
2023-03-02T21:32:53.772Z,8.60
2023-03-02T21:35:39.036Z,8.60
2023-03-02T21:38:24.297Z,8.60
2023-03-02T21:41:10.404Z,8.60
2023-03-02T21:43:56.170Z,8.60
2023-03-02T21:46:41.846Z,8.60
2023-03-02T21:49:27.674Z,8.60
2023-03-02T21:52:13.268Z,8.60
2023-03-02T21:54:58.729Z,8.60
2023-03-02T21:57:44.880Z,8.60
2023-03-02T22:00:32.755Z,8.60
2023-03-02T22:03:18.012Z,8.60
2023-03-02T22:06:03.325Z,8.60
2023-03-02T22:08:49.618Z,8.60
2023-03-02T22:11:36.592Z,8.60
2023-03-02T22:14:22.045Z,8.60
2023-03-02T22:17:17.075Z,8.60
2023-03-02T22:20:02.434Z,8.60
2023-03-02T22:22:49.034Z,8.60
2023-03-02T22:25:34.332Z,8.60
2023-03-02T22:28:21.121Z,8.60
2023-03-02T22:31:12.179Z,8.60
2023-03-02T22:33:58.006Z,8.60
2023-03-02T22:36:43.488Z,8.60
2023-03-02T22:39:31.652Z,8.50
2023-03-02T22:42:18.424Z,8.60
2023-03-02T22:45:09.999Z,8.60
2023-03-02T22:48:02.105Z,8.50
2023-03-02T22:50:49.632Z,8.50
2023-03-02T22:53:38.071Z,8.50
2023-03-02T22:56:42.796Z,8.50
2023-03-02T22:59:29.072Z,8.50
2023-03-02T23:02:18.497Z,8.50
2023-03-02T23:05:18.527Z,8.50
2023-03-02T23:08:24.403Z,8.40
2023-03-02T23:11:13.908Z,8.40
2023-03-02T23:14:00.412Z,8.50
2023-03-02T23:16:48.180Z,8.50
2023-03-02T23:19:34.077Z,8.50
2023-03-02T23:22:19.867Z,8.40
2023-03-02T23:25:06.370Z,8.40
2023-03-02T23:27:52.031Z,8.40
2023-03-02T23:30:37.566Z,8.40
2023-03-02T23:33:23.183Z,8.40
2023-03-02T23:36:09.106Z,8.40
2023-03-02T23:38:54.868Z,8.40
2023-03-02T23:41:40.135Z,8.40
2023-03-02T23:44:26.275Z,8.40
2023-03-02T23:47:12.156Z,8.30
2023-03-02T23:49:57.706Z,8.40
2023-03-02T23:52:43.255Z,8.40
2023-03-02T23:55:29.058Z,8.40
2023-03-02T23:58:14.485Z,8.30
